sensor_id;sensor_type;location;lat;lon;timestamp;P1;durP1;ratioP1;P2;durP2;ratioP2
61531;SDS011;47397;48.194;11.632;2022-07-30T00:00:56;5.57;;;2.70;;
61531;SDS011;47397;48.194;11.632;2022-07-30T00:01:56;3.33;;;2.47;;
61531;SDS011;47397;48.194;11.632;2022-07-30T00:02:57;4.72;;;3.08;;
61531;SDS011;47397;48.194;11.632;2022-07-30T00:03:57;4.75;;;3.08;;
61531;SDS011;47397;48.194;11.632;2022-07-30T00:04:57;4.45;;;2.45;;
61531;SDS011;47397;48.194;11.632;2022-07-30T00:05:58;3.65;;;2.50;;
61531;SDS011;47397;48.194;11.632;2022-07-30T00:06:58;4.05;;;2.70;;
61531;SDS011;47397;48.194;11.632;2022-07-30T00:08:00;3.78;;;2.47;;
61531;SDS011;47397;48.194;11.632;2022-07-30T00:09:01;3.88;;;2.30;;
61531;SDS011;47397;48.194;11.632;2022-07-30T00:10:01;3.45;;;2.53;;
61531;SDS011;47397;48.194;11.632;2022-07-30T00:11:02;2.85;;;2.40;;
61531;SDS011;47397;48.194;11.632;2022-07-30T00:12:03;3.95;;;2.50;;
61531;SDS011;47397;48.194;11.632;2022-07-30T00:13:03;4.00;;;2.28;;
61531;SDS011;47397;48.194;11.632;2022-07-30T00:14:04;3.95;;;2.58;;
61531;SDS011;47397;48.194;11.632;2022-07-30T00:15:05;3.25;;;2.42;;
61531;SDS011;47397;48.194;11.632;2022-07-30T00:16:06;4.38;;;2.58;;
61531;SDS011;47397;48.194;11.632;2022-07-30T00:17:06;3.78;;;2.33;;
61531;SDS011;47397;48.194;11.632;2022-07-30T00:18:07;3.78;;;2.47;;
61531;SDS011;47397;48.194;11.632;2022-07-30T00:19:07;4.28;;;2.40;;
61531;SDS011;47397;48.194;11.632;2022-07-30T00:20:08;3.05;;;2.35;;
61531;SDS011;47397;48.194;11.632;2022-07-30T00:21:09;2.65;;;2.40;;
61531;SDS011;47397;48.194;11.632;2022-07-30T00:22:10;5.50;;;2.60;;
61531;SDS011;47397;48.194;11.632;2022-07-30T00:23:12;4.10;;;2.63;;
61531;SDS011;47397;48.194;11.632;2022-07-30T00:24:12;3.50;;;2.70;;
61531;SDS011;47397;48.194;11.632;2022-07-30T00:25:12;3.28;;;2.30;;
61531;SDS011;47397;48.194;11.632;2022-07-30T00:26:13;2.95;;;2.60;;
61531;SDS011;47397;48.194;11.632;2022-07-30T00:27:13;3.03;;;2.30;;
61531;SDS011;47397;48.194;11.632;2022-07-30T00:28:14;5.65;;;2.47;;
61531;SDS011;47397;48.194;11.632;2022-07-30T00:29:14;3.28;;;2.00;;
61531;SDS011;47397;48.194;11.632;2022-07-30T00:30:15;3.58;;;2.25;;
61531;SDS011;47397;48.194;11.632;2022-07-30T00:31:15;3.05;;;2.05;;
61531;SDS011;47397;48.194;11.632;2022-07-30T00:32:16;2.90;;;2.17;;
61531;SDS011;47397;48.194;11.632;2022-07-30T00:33:16;2.85;;;2.20;;
61531;SDS011;47397;48.194;11.632;2022-07-30T00:34:16;2.88;;;2.22;;
61531;SDS011;47397;48.194;11.632;2022-07-30T00:35:17;3.65;;;2.22;;
61531;SDS011;47397;48.194;11.632;2022-07-30T00:36:17;2.80;;;2.15;;
61531;SDS011;47397;48.194;11.632;2022-07-30T00:37:18;2.95;;;2.58;;
61531;SDS011;47397;48.194;11.632;2022-07-30T00:38:20;3.10;;;2.20;;
61531;SDS011;47397;48.194;11.632;2022-07-30T00:39:20;2.65;;;2.10;;
61531;SDS011;47397;48.194;11.632;2022-07-30T00:40:20;3.08;;;2.40;;
61531;SDS011;47397;48.194;11.632;2022-07-30T00:41:21;3.63;;;2.35;;
61531;SDS011;47397;48.194;11.632;2022-07-30T00:42:22;4.22;;;2.35;;
61531;SDS011;47397;48.194;11.632;2022-07-30T00:43:22;3.15;;;2.30;;
61531;SDS011;47397;48.194;11.632;2022-07-30T00:44:23;4.30;;;1.88;;
61531;SDS011;47397;48.194;11.632;2022-07-30T00:45:23;2.95;;;2.20;;
61531;SDS011;47397;48.194;11.632;2022-07-30T00:46:24;2.90;;;2.40;;
61531;SDS011;47397;48.194;11.632;2022-07-30T00:47:24;3.35;;;2.50;;
61531;SDS011;47397;48.194;11.632;2022-07-30T00:48:25;3.15;;;2.08;;
61531;SDS011;47397;48.194;11.632;2022-07-30T00:49:25;4.35;;;2.25;;
61531;SDS011;47397;48.194;11.632;2022-07-30T00:50:26;3.10;;;2.22;;
61531;SDS011;47397;48.194;11.632;2022-07-30T00:51:26;2.83;;;2.17;;
61531;SDS011;47397;48.194;11.632;2022-07-30T00:52:26;5.00;;;2.25;;
61531;SDS011;47397;48.194;11.632;2022-07-30T00:53:28;3.08;;;2.00;;
61531;SDS011;47397;48.194;11.632;2022-07-30T00:54:29;2.90;;;2.30;;
61531;SDS011;47397;48.194;11.632;2022-07-30T00:55:29;3.00;;;2.10;;
61531;SDS011;47397;48.194;11.632;2022-07-30T00:56:30;4.50;;;2.03;;
61531;SDS011;47397;48.194;11.632;2022-07-30T00:57:30;2.90;;;2.22;;
61531;SDS011;47397;48.194;11.632;2022-07-30T00:58:31;3.40;;;1.98;;
61531;SDS011;47397;48.194;11.632;2022-07-30T00:59:31;3.45;;;2.00;;
61531;SDS011;47397;48.194;11.632;2022-07-30T01:00:32;2.50;;;1.83;;
61531;SDS011;47397;48.194;11.632;2022-07-30T01:01:33;3.67;;;2.13;;
61531;SDS011;47397;48.194;11.632;2022-07-30T01:02:34;2.70;;;2.08;;
61531;SDS011;47397;48.194;11.632;2022-07-30T01:03:36;2.47;;;1.92;;
61531;SDS011;47397;48.194;11.632;2022-07-30T01:04:36;2.92;;;2.10;;
61531;SDS011;47397;48.194;11.632;2022-07-30T01:05:37;2.95;;;2.30;;
61531;SDS011;47397;48.194;11.632;2022-07-30T01:06:37;3.03;;;2.25;;
61531;SDS011;47397;48.194;11.632;2022-07-30T01:07:38;3.83;;;1.92;;
61531;SDS011;47397;48.194;11.632;2022-07-30T01:08:40;2.95;;;2.00;;
61531;SDS011;47397;48.194;11.632;2022-07-30T01:09:40;2.60;;;2.10;;
61531;SDS011;47397;48.194;11.632;2022-07-30T01:10:41;3.97;;;2.10;;
61531;SDS011;47397;48.194;11.632;2022-07-30T01:11:41;3.53;;;1.98;;
61531;SDS011;47397;48.194;11.632;2022-07-30T01:12:42;3.22;;;2.25;;
61531;SDS011;47397;48.194;11.632;2022-07-30T01:13:43;3.72;;;2.15;;
61531;SDS011;47397;48.194;11.632;2022-07-30T01:14:44;3.42;;;2.03;;
61531;SDS011;47397;48.194;11.632;2022-07-30T01:15:44;3.83;;;2.30;;
61531;SDS011;47397;48.194;11.632;2022-07-30T01:16:45;2.95;;;2.20;;
61531;SDS011;47397;48.194;11.632;2022-07-30T01:17:45;3.47;;;2.13;;
61531;SDS011;47397;48.194;11.632;2022-07-30T01:18:49;3.28;;;2.17;;
61531;SDS011;47397;48.194;11.632;2022-07-30T01:19:53;3.05;;;2.38;;
61531;SDS011;47397;48.194;11.632;2022-07-30T01:20:56;2.70;;;1.90;;
61531;SDS011;47397;48.194;11.632;2022-07-30T01:22:09;4.53;;;2.10;;
61531;SDS011;47397;48.194;11.632;2022-07-30T01:23:20;3.08;;;2.50;;
61531;SDS011;47397;48.194;11.632;2022-07-30T01:24:29;4.00;;;2.25;;
61531;SDS011;47397;48.194;11.632;2022-07-30T01:26:58;2.78;;;2.10;;
61531;SDS011;47397;48.194;11.632;2022-07-30T01:28:00;2.92;;;2.17;;
61531;SDS011;47397;48.194;11.632;2022-07-30T01:29:03;2.90;;;2.03;;
61531;SDS011;47397;48.194;11.632;2022-07-30T01:30:05;2.83;;;2.00;;
61531;SDS011;47397;48.194;11.632;2022-07-30T01:31:06;2.97;;;2.10;;
61531;SDS011;47397;48.194;11.632;2022-07-30T01:32:08;3.25;;;2.22;;
61531;SDS011;47397;48.194;11.632;2022-07-30T01:33:10;3.35;;;2.17;;
61531;SDS011;47397;48.194;11.632;2022-07-30T01:34:14;3.92;;;2.22;;
61531;SDS011;47397;48.194;11.632;2022-07-30T01:35:16;3.45;;;2.20;;
61531;SDS011;47397;48.194;11.632;2022-07-30T01:36:19;3.30;;;2.40;;
61531;SDS011;47397;48.194;11.632;2022-07-30T01:37:22;3.50;;;2.40;;
61531;SDS011;47397;48.194;11.632;2022-07-30T01:38:24;3.45;;;2.30;;
61531;SDS011;47397;48.194;11.632;2022-07-30T01:39:27;3.88;;;1.95;;
61531;SDS011;47397;48.194;11.632;2022-07-30T01:40:28;2.60;;;1.98;;
61531;SDS011;47397;48.194;11.632;2022-07-30T01:41:32;3.13;;;2.30;;
61531;SDS011;47397;48.194;11.632;2022-07-30T01:42:32;3.65;;;2.33;;
61531;SDS011;47397;48.194;11.632;2022-07-30T01:43:35;3.00;;;2.47;;
61531;SDS011;47397;48.194;11.632;2022-07-30T01:44:35;2.60;;;2.03;;
61531;SDS011;47397;48.194;11.632;2022-07-30T01:45:38;3.10;;;2.20;;
61531;SDS011;47397;48.194;11.632;2022-07-30T01:46:40;3.63;;;2.35;;
61531;SDS011;47397;48.194;11.632;2022-07-30T01:47:41;3.58;;;2.40;;
61531;SDS011;47397;48.194;11.632;2022-07-30T01:48:43;3.45;;;2.28;;
61531;SDS011;47397;48.194;11.632;2022-07-30T01:49:44;3.42;;;2.53;;
61531;SDS011;47397;48.194;11.632;2022-07-30T01:50:46;2.72;;;2.20;;
61531;SDS011;47397;48.194;11.632;2022-07-30T01:51:50;2.45;;;2.00;;
61531;SDS011;47397;48.194;11.632;2022-07-30T01:52:51;3.45;;;2.45;;
61531;SDS011;47397;48.194;11.632;2022-07-30T01:53:53;4.20;;;2.45;;
61531;SDS011;47397;48.194;11.632;2022-07-30T01:54:55;3.45;;;2.20;;
61531;SDS011;47397;48.194;11.632;2022-07-30T01:55:58;3.28;;;2.22;;
61531;SDS011;47397;48.194;11.632;2022-07-30T01:57:02;3.08;;;2.25;;
61531;SDS011;47397;48.194;11.632;2022-07-30T01:58:04;3.58;;;2.40;;
61531;SDS011;47397;48.194;11.632;2022-07-30T01:59:06;2.70;;;2.38;;
61531;SDS011;47397;48.194;11.632;2022-07-30T02:00:09;3.17;;;2.22;;
61531;SDS011;47397;48.194;11.632;2022-07-30T02:01:10;3.97;;;2.42;;
61531;SDS011;47397;48.194;11.632;2022-07-30T02:02:11;2.47;;;2.22;;
61531;SDS011;47397;48.194;11.632;2022-07-30T02:03:11;3.97;;;2.50;;
61531;SDS011;47397;48.194;11.632;2022-07-30T02:04:12;2.95;;;2.30;;
61531;SDS011;47397;48.194;11.632;2022-07-30T02:05:13;2.88;;;2.20;;
61531;SDS011;47397;48.194;11.632;2022-07-30T02:06:16;2.40;;;2.10;;
61531;SDS011;47397;48.194;11.632;2022-07-30T02:07:22;2.83;;;2.00;;
61531;SDS011;47397;48.194;11.632;2022-07-30T02:08:27;4.50;;;2.63;;
61531;SDS011;47397;48.194;11.632;2022-07-30T02:09:40;4.47;;;2.40;;
61531;SDS011;47397;48.194;11.632;2022-07-30T02:10:51;4.45;;;2.50;;
61531;SDS011;47397;48.194;11.632;2022-07-30T02:11:54;3.55;;;2.47;;
61531;SDS011;47397;48.194;11.632;2022-07-30T02:12:58;3.78;;;2.40;;
61531;SDS011;47397;48.194;11.632;2022-07-30T02:14:00;3.47;;;2.22;;
61531;SDS011;47397;48.194;11.632;2022-07-30T02:15:06;2.70;;;2.20;;
61531;SDS011;47397;48.194;11.632;2022-07-30T02:16:10;3.72;;;2.20;;
61531;SDS011;47397;48.194;11.632;2022-07-30T02:17:17;2.88;;;2.38;;
61531;SDS011;47397;48.194;11.632;2022-07-30T02:18:20;2.90;;;2.40;;
61531;SDS011;47397;48.194;11.632;2022-07-30T02:19:28;3.33;;;2.58;;
61531;SDS011;47397;48.194;11.632;2022-07-30T02:20:32;3.55;;;2.58;;
61531;SDS011;47397;48.194;11.632;2022-07-30T02:21:34;3.90;;;2.58;;
61531;SDS011;47397;48.194;11.632;2022-07-30T02:22:38;2.80;;;2.50;;
61531;SDS011;47397;48.194;11.632;2022-07-30T02:23:41;3.00;;;2.70;;
61531;SDS011;47397;48.194;11.632;2022-07-30T02:24:44;3.25;;;2.67;;
61531;SDS011;47397;48.194;11.632;2022-07-30T02:25:48;3.00;;;2.70;;
61531;SDS011;47397;48.194;11.632;2022-07-30T02:26:52;2.90;;;2.58;;
61531;SDS011;47397;48.194;11.632;2022-07-30T02:27:57;3.38;;;2.30;;
61531;SDS011;47397;48.194;11.632;2022-07-30T02:29:02;3.33;;;2.70;;
61531;SDS011;47397;48.194;11.632;2022-07-30T02:30:05;4.32;;;2.70;;
61531;SDS011;47397;48.194;11.632;2022-07-30T02:31:06;2.88;;;2.58;;
61531;SDS011;47397;48.194;11.632;2022-07-30T02:32:09;4.63;;;2.80;;
61531;SDS011;47397;48.194;11.632;2022-07-30T02:33:12;3.55;;;2.90;;
61531;SDS011;47397;48.194;11.632;2022-07-30T02:34:16;3.63;;;2.50;;
61531;SDS011;47397;48.194;11.632;2022-07-30T02:35:20;3.35;;;2.63;;
61531;SDS011;47397;48.194;11.632;2022-07-30T02:36:22;3.05;;;2.40;;
61531;SDS011;47397;48.194;11.632;2022-07-30T02:37:25;3.50;;;2.70;;
61531;SDS011;47397;48.194;11.632;2022-07-30T02:38:28;3.00;;;2.42;;
61531;SDS011;47397;48.194;11.632;2022-07-30T02:39:29;4.10;;;2.60;;
61531;SDS011;47397;48.194;11.632;2022-07-30T02:40:33;3.15;;;2.50;;
61531;SDS011;47397;48.194;11.632;2022-07-30T02:41:34;4.28;;;2.72;;
61531;SDS011;47397;48.194;11.632;2022-07-30T02:42:37;4.53;;;3.05;;
61531;SDS011;47397;48.194;11.632;2022-07-30T02:43:39;3.38;;;2.50;;
61531;SDS011;47397;48.194;11.632;2022-07-30T02:44:41;3.88;;;2.90;;
61531;SDS011;47397;48.194;11.632;2022-07-30T02:45:45;3.03;;;2.53;;
61531;SDS011;47397;48.194;11.632;2022-07-30T02:46:46;3.72;;;2.70;;
61531;SDS011;47397;48.194;11.632;2022-07-30T02:47:51;5.45;;;2.80;;
61531;SDS011;47397;48.194;11.632;2022-07-30T02:48:54;3.15;;;2.83;;
61531;SDS011;47397;48.194;11.632;2022-07-30T02:49:56;4.38;;;3.10;;
61531;SDS011;47397;48.194;11.632;2022-07-30T02:50:59;3.05;;;2.75;;
61531;SDS011;47397;48.194;11.632;2022-07-30T02:52:00;3.00;;;2.67;;
61531;SDS011;47397;48.194;11.632;2022-07-30T02:53:02;3.95;;;2.70;;
61531;SDS011;47397;48.194;11.632;2022-07-30T02:54:05;3.20;;;2.70;;
61531;SDS011;47397;48.194;11.632;2022-07-30T02:55:08;3.50;;;2.88;;
61531;SDS011;47397;48.194;11.632;2022-07-30T02:56:10;3.00;;;2.67;;
61531;SDS011;47397;48.194;11.632;2022-07-30T02:57:12;3.40;;;2.70;;
61531;SDS011;47397;48.194;11.632;2022-07-30T02:58:14;3.42;;;2.70;;
61531;SDS011;47397;48.194;11.632;2022-07-30T02:59:19;3.00;;;2.55;;
61531;SDS011;47397;48.194;11.632;2022-07-30T03:00:21;3.35;;;2.92;;
61531;SDS011;47397;48.194;11.632;2022-07-30T03:01:23;3.25;;;2.60;;
61531;SDS011;47397;48.194;11.632;2022-07-30T03:02:25;4.50;;;2.80;;
61531;SDS011;47397;48.194;11.632;2022-07-30T03:03:26;2.90;;;2.60;;
61531;SDS011;47397;48.194;11.632;2022-07-30T03:04:26;3.75;;;3.00;;
61531;SDS011;47397;48.194;11.632;2022-07-30T03:05:27;3.72;;;2.67;;
61531;SDS011;47397;48.194;11.632;2022-07-30T03:06:28;3.40;;;2.80;;
61531;SDS011;47397;48.194;11.632;2022-07-30T03:07:30;3.75;;;3.00;;
61531;SDS011;47397;48.194;11.632;2022-07-30T03:08:31;4.28;;;2.70;;
61531;SDS011;47397;48.194;11.632;2022-07-30T03:09:32;5.70;;;2.85;;
61531;SDS011;47397;48.194;11.632;2022-07-30T03:10:34;4.90;;;2.85;;
61531;SDS011;47397;48.194;11.632;2022-07-30T03:11:36;4.82;;;2.63;;
61531;SDS011;47397;48.194;11.632;2022-07-30T03:12:37;3.28;;;2.90;;
61531;SDS011;47397;48.194;11.632;2022-07-30T03:13:40;3.00;;;2.63;;
61531;SDS011;47397;48.194;11.632;2022-07-30T03:14:42;4.38;;;2.78;;
61531;SDS011;47397;48.194;11.632;2022-07-30T03:15:43;3.88;;;2.90;;
61531;SDS011;47397;48.194;11.632;2022-07-30T03:16:46;3.03;;;2.50;;
61531;SDS011;47397;48.194;11.632;2022-07-30T03:17:51;4.07;;;2.90;;
61531;SDS011;47397;48.194;11.632;2022-07-30T03:18:52;3.88;;;2.80;;
61531;SDS011;47397;48.194;11.632;2022-07-30T03:19:54;3.25;;;2.92;;
61531;SDS011;47397;48.194;11.632;2022-07-30T03:20:55;3.83;;;2.90;;
61531;SDS011;47397;48.194;11.632;2022-07-30T03:21:59;6.35;;;3.20;;
61531;SDS011;47397;48.194;11.632;2022-07-30T03:23:00;3.22;;;2.60;;
61531;SDS011;47397;48.194;11.632;2022-07-30T03:24:03;3.10;;;2.80;;
61531;SDS011;47397;48.194;11.632;2022-07-30T03:25:06;5.13;;;3.42;;
61531;SDS011;47397;48.194;11.632;2022-07-30T03:26:08;3.53;;;3.22;;
61531;SDS011;47397;48.194;11.632;2022-07-30T03:27:10;4.55;;;3.05;;
61531;SDS011;47397;48.194;11.632;2022-07-30T03:28:11;4.00;;;3.03;;
61531;SDS011;47397;48.194;11.632;2022-07-30T03:29:14;4.65;;;3.22;;
61531;SDS011;47397;48.194;11.632;2022-07-30T03:30:17;5.63;;;3.40;;
61531;SDS011;47397;48.194;11.632;2022-07-30T03:31:18;3.80;;;3.15;;
61531;SDS011;47397;48.194;11.632;2022-07-30T03:32:18;3.97;;;3.28;;
61531;SDS011;47397;48.194;11.632;2022-07-30T03:33:19;4.10;;;3.00;;
61531;SDS011;47397;48.194;11.632;2022-07-30T03:34:20;5.28;;;3.47;;
61531;SDS011;47397;48.194;11.632;2022-07-30T03:35:22;4.47;;;3.20;;
61531;SDS011;47397;48.194;11.632;2022-07-30T03:36:23;4.25;;;3.40;;
61531;SDS011;47397;48.194;11.632;2022-07-30T03:37:25;3.92;;;3.20;;
61531;SDS011;47397;48.194;11.632;2022-07-30T03:38:26;4.68;;;3.75;;
61531;SDS011;47397;48.194;11.632;2022-07-30T03:39:27;4.20;;;3.33;;
61531;SDS011;47397;48.194;11.632;2022-07-30T03:40:28;4.68;;;3.67;;
61531;SDS011;47397;48.194;11.632;2022-07-30T03:41:29;3.80;;;3.30;;
61531;SDS011;47397;48.194;11.632;2022-07-30T03:42:30;4.65;;;3.53;;
61531;SDS011;47397;48.194;11.632;2022-07-30T03:43:31;3.72;;;3.33;;
61531;SDS011;47397;48.194;11.632;2022-07-30T03:44:32;3.60;;;3.20;;
61531;SDS011;47397;48.194;11.632;2022-07-30T03:45:34;4.25;;;3.60;;
61531;SDS011;47397;48.194;11.632;2022-07-30T03:46:35;4.75;;;3.20;;
61531;SDS011;47397;48.194;11.632;2022-07-30T03:47:37;5.35;;;3.45;;
61531;SDS011;47397;48.194;11.632;2022-07-30T03:48:38;5.30;;;3.47;;
61531;SDS011;47397;48.194;11.632;2022-07-30T03:49:40;4.90;;;3.15;;
61531;SDS011;47397;48.194;11.632;2022-07-30T03:50:41;5.10;;;3.58;;
61531;SDS011;47397;48.194;11.632;2022-07-30T03:51:41;4.35;;;3.30;;
61531;SDS011;47397;48.194;11.632;2022-07-30T03:52:42;3.30;;;3.00;;
61531;SDS011;47397;48.194;11.632;2022-07-30T03:53:43;3.58;;;3.22;;
61531;SDS011;47397;48.194;11.632;2022-07-30T03:54:45;4.05;;;3.40;;
61531;SDS011;47397;48.194;11.632;2022-07-30T03:55:47;4.38;;;3.30;;
61531;SDS011;47397;48.194;11.632;2022-07-30T03:56:47;3.88;;;3.22;;
61531;SDS011;47397;48.194;11.632;2022-07-30T03:57:48;3.65;;;3.33;;
61531;SDS011;47397;48.194;11.632;2022-07-30T03:58:49;4.15;;;3.28;;
61531;SDS011;47397;48.194;11.632;2022-07-30T03:59:49;6.93;;;4.03;;
61531;SDS011;47397;48.194;11.632;2022-07-30T04:00:51;4.43;;;3.40;;
61531;SDS011;47397;48.194;11.632;2022-07-30T04:01:52;3.67;;;3.35;;
61531;SDS011;47397;48.194;11.632;2022-07-30T04:02:52;4.80;;;3.50;;
61531;SDS011;47397;48.194;11.632;2022-07-30T04:03:53;4.93;;;3.42;;
61531;SDS011;47397;48.194;11.632;2022-07-30T04:04:54;4.47;;;3.60;;
61531;SDS011;47397;48.194;11.632;2022-07-30T04:05:54;4.32;;;3.33;;
61531;SDS011;47397;48.194;11.632;2022-07-30T04:06:55;4.32;;;3.45;;
61531;SDS011;47397;48.194;11.632;2022-07-30T04:07:56;3.92;;;3.55;;
61531;SDS011;47397;48.194;11.632;2022-07-30T04:08:57;3.85;;;3.47;;
61531;SDS011;47397;48.194;11.632;2022-07-30T04:09:57;4.72;;;3.47;;
61531;SDS011;47397;48.194;11.632;2022-07-30T04:10:57;3.78;;;3.10;;
61531;SDS011;47397;48.194;11.632;2022-07-30T04:11:58;4.18;;;3.40;;
61531;SDS011;47397;48.194;11.632;2022-07-30T04:12:58;4.10;;;3.63;;
61531;SDS011;47397;48.194;11.632;2022-07-30T04:13:59;3.67;;;3.25;;
61531;SDS011;47397;48.194;11.632;2022-07-30T04:14:59;3.92;;;3.33;;
61531;SDS011;47397;48.194;11.632;2022-07-30T04:16:03;4.63;;;3.47;;
61531;SDS011;47397;48.194;11.632;2022-07-30T04:17:08;4.18;;;3.15;;
61531;SDS011;47397;48.194;11.632;2022-07-30T04:18:14;5.45;;;3.17;;
61531;SDS011;47397;48.194;11.632;2022-07-30T04:19:18;4.72;;;3.33;;
61531;SDS011;47397;48.194;11.632;2022-07-30T04:20:23;4.63;;;3.35;;
61531;SDS011;47397;48.194;11.632;2022-07-30T04:21:25;3.70;;;3.30;;
61531;SDS011;47397;48.194;11.632;2022-07-30T04:22:29;3.40;;;3.03;;
61531;SDS011;47397;48.194;11.632;2022-07-30T04:23:32;5.40;;;3.80;;
61531;SDS011;47397;48.194;11.632;2022-07-30T04:24:33;5.65;;;3.50;;
61531;SDS011;47397;48.194;11.632;2022-07-30T04:25:35;4.57;;;3.13;;
61531;SDS011;47397;48.194;11.632;2022-07-30T04:26:36;4.00;;;3.60;;
61531;SDS011;47397;48.194;11.632;2022-07-30T04:27:37;3.92;;;3.28;;
61531;SDS011;47397;48.194;11.632;2022-07-30T04:28:38;3.53;;;3.17;;
61531;SDS011;47397;48.194;11.632;2022-07-30T04:29:39;3.92;;;3.45;;
61531;SDS011;47397;48.194;11.632;2022-07-30T04:30:40;3.70;;;3.28;;
61531;SDS011;47397;48.194;11.632;2022-07-30T04:31:42;4.43;;;3.65;;
61531;SDS011;47397;48.194;11.632;2022-07-30T04:32:42;3.90;;;3.08;;
61531;SDS011;47397;48.194;11.632;2022-07-30T04:33:44;6.13;;;3.22;;
61531;SDS011;47397;48.194;11.632;2022-07-30T04:34:45;5.00;;;3.55;;
61531;SDS011;47397;48.194;11.632;2022-07-30T04:35:46;4.00;;;3.60;;
61531;SDS011;47397;48.194;11.632;2022-07-30T04:36:47;3.92;;;3.42;;
61531;SDS011;47397;48.194;11.632;2022-07-30T04:37:47;4.18;;;3.35;;
61531;SDS011;47397;48.194;11.632;2022-07-30T04:38:48;5.15;;;3.47;;
61531;SDS011;47397;48.194;11.632;2022-07-30T04:39:48;4.25;;;3.55;;
61531;SDS011;47397;48.194;11.632;2022-07-30T04:40:49;4.72;;;3.35;;
61531;SDS011;47397;48.194;11.632;2022-07-30T04:41:49;3.83;;;3.13;;
61531;SDS011;47397;48.194;11.632;2022-07-30T04:42:50;3.92;;;3.33;;
61531;SDS011;47397;48.194;11.632;2022-07-30T04:43:50;3.42;;;2.95;;
61531;SDS011;47397;48.194;11.632;2022-07-30T04:44:51;3.53;;;3.00;;
61531;SDS011;47397;48.194;11.632;2022-07-30T04:45:52;3.90;;;3.50;;
61531;SDS011;47397;48.194;11.632;2022-07-30T04:46:54;4.60;;;3.50;;
61531;SDS011;47397;48.194;11.632;2022-07-30T04:47:54;5.32;;;3.05;;
61531;SDS011;47397;48.194;11.632;2022-07-30T04:48:55;4.97;;;3.25;;
61531;SDS011;47397;48.194;11.632;2022-07-30T04:49:55;3.30;;;3.00;;
61531;SDS011;47397;48.194;11.632;2022-07-30T04:50:58;3.50;;;3.20;;
61531;SDS011;47397;48.194;11.632;2022-07-30T04:52:01;3.95;;;3.33;;
61531;SDS011;47397;48.194;11.632;2022-07-30T04:53:03;4.95;;;3.58;;
61531;SDS011;47397;48.194;11.632;2022-07-30T04:54:05;4.63;;;3.50;;
61531;SDS011;47397;48.194;11.632;2022-07-30T04:55:08;4.80;;;3.58;;
61531;SDS011;47397;48.194;11.632;2022-07-30T04:56:10;3.40;;;3.10;;
61531;SDS011;47397;48.194;11.632;2022-07-30T04:57:13;4.22;;;3.08;;
61531;SDS011;47397;48.194;11.632;2022-07-30T04:58:15;3.90;;;3.50;;
61531;SDS011;47397;48.194;11.632;2022-07-30T04:59:18;4.30;;;3.25;;
61531;SDS011;47397;48.194;11.632;2022-07-30T05:00:20;4.95;;;3.10;;
61531;SDS011;47397;48.194;11.632;2022-07-30T05:01:21;6.78;;;3.80;;
61531;SDS011;47397;48.194;11.632;2022-07-30T05:02:25;5.35;;;3.35;;
61531;SDS011;47397;48.194;11.632;2022-07-30T05:03:29;3.50;;;3.20;;
61531;SDS011;47397;48.194;11.632;2022-07-30T05:04:30;5.00;;;3.20;;
61531;SDS011;47397;48.194;11.632;2022-07-30T05:05:33;4.18;;;3.08;;
61531;SDS011;47397;48.194;11.632;2022-07-30T05:06:34;5.55;;;3.08;;
61531;SDS011;47397;48.194;11.632;2022-07-30T05:07:36;3.40;;;3.10;;
61531;SDS011;47397;48.194;11.632;2022-07-30T05:08:37;4.05;;;3.53;;
61531;SDS011;47397;48.194;11.632;2022-07-30T05:09:38;3.72;;;3.33;;
61531;SDS011;47397;48.194;11.632;2022-07-30T05:10:39;3.70;;;3.40;;
61531;SDS011;47397;48.194;11.632;2022-07-30T05:11:39;5.25;;;3.53;;
61531;SDS011;47397;48.194;11.632;2022-07-30T05:12:40;4.30;;;3.33;;
61531;SDS011;47397;48.194;11.632;2022-07-30T05:13:40;4.32;;;3.20;;
61531;SDS011;47397;48.194;11.632;2022-07-30T05:14:41;4.30;;;3.47;;
61531;SDS011;47397;48.194;11.632;2022-07-30T05:15:41;4.55;;;3.63;;
61531;SDS011;47397;48.194;11.632;2022-07-30T05:16:42;4.68;;;3.60;;
61531;SDS011;47397;48.194;11.632;2022-07-30T05:17:44;3.65;;;3.10;;
61531;SDS011;47397;48.194;11.632;2022-07-30T05:18:44;3.88;;;3.40;;
61531;SDS011;47397;48.194;11.632;2022-07-30T05:19:45;4.55;;;3.38;;
61531;SDS011;47397;48.194;11.632;2022-07-30T05:20:45;4.22;;;3.22;;
61531;SDS011;47397;48.194;11.632;2022-07-30T05:21:46;4.38;;;3.03;;
61531;SDS011;47397;48.194;11.632;2022-07-30T05:22:46;4.55;;;3.47;;
61531;SDS011;47397;48.194;11.632;2022-07-30T05:23:47;3.15;;;2.85;;
61531;SDS011;47397;48.194;11.632;2022-07-30T05:24:47;4.95;;;3.25;;
61531;SDS011;47397;48.194;11.632;2022-07-30T05:25:48;4.50;;;3.13;;
61531;SDS011;47397;48.194;11.632;2022-07-30T05:26:48;4.85;;;3.78;;
61531;SDS011;47397;48.194;11.632;2022-07-30T05:27:48;4.60;;;3.53;;
61531;SDS011;47397;48.194;11.632;2022-07-30T05:28:49;4.15;;;3.42;;
61531;SDS011;47397;48.194;11.632;2022-07-30T05:29:49;3.78;;;3.20;;
61531;SDS011;47397;48.194;11.632;2022-07-30T05:30:50;4.78;;;3.28;;
61531;SDS011;47397;48.194;11.632;2022-07-30T05:31:50;4.47;;;3.53;;
61531;SDS011;47397;48.194;11.632;2022-07-30T05:32:52;3.80;;;3.40;;
61531;SDS011;47397;48.194;11.632;2022-07-30T05:33:52;4.90;;;3.78;;
61531;SDS011;47397;48.194;11.632;2022-07-30T05:34:53;3.88;;;3.28;;
61531;SDS011;47397;48.194;11.632;2022-07-30T05:35:53;4.47;;;3.28;;
61531;SDS011;47397;48.194;11.632;2022-07-30T05:36:54;3.63;;;3.17;;
61531;SDS011;47397;48.194;11.632;2022-07-30T05:37:54;6.53;;;3.55;;
61531;SDS011;47397;48.194;11.632;2022-07-30T05:38:55;4.22;;;3.55;;
61531;SDS011;47397;48.194;11.632;2022-07-30T05:39:55;3.72;;;3.00;;
61531;SDS011;47397;48.194;11.632;2022-07-30T05:40:55;3.65;;;3.30;;
61531;SDS011;47397;48.194;11.632;2022-07-30T05:41:56;4.03;;;3.28;;
61531;SDS011;47397;48.194;11.632;2022-07-30T05:42:56;4.40;;;3.45;;
61531;SDS011;47397;48.194;11.632;2022-07-30T05:43:57;3.58;;;3.28;;
61531;SDS011;47397;48.194;11.632;2022-07-30T05:44:57;3.67;;;3.35;;
61531;SDS011;47397;48.194;11.632;2022-07-30T05:45:57;4.75;;;3.40;;
61531;SDS011;47397;48.194;11.632;2022-07-30T05:46:58;3.47;;;2.97;;
61531;SDS011;47397;48.194;11.632;2022-07-30T05:48:00;3.80;;;3.40;;
61531;SDS011;47397;48.194;11.632;2022-07-30T05:49:00;3.95;;;3.20;;
61531;SDS011;47397;48.194;11.632;2022-07-30T05:50:01;4.57;;;3.30;;
61531;SDS011;47397;48.194;11.632;2022-07-30T05:51:01;4.35;;;3.72;;
61531;SDS011;47397;48.194;11.632;2022-07-30T05:52:02;4.32;;;3.50;;
61531;SDS011;47397;48.194;11.632;2022-07-30T05:53:03;5.10;;;3.33;;
61531;SDS011;47397;48.194;11.632;2022-07-30T05:54:03;3.60;;;3.20;;
61531;SDS011;47397;48.194;11.632;2022-07-30T05:55:05;4.13;;;3.72;;
61531;SDS011;47397;48.194;11.632;2022-07-30T05:56:06;5.10;;;3.45;;
61531;SDS011;47397;48.194;11.632;2022-07-30T05:57:06;5.47;;;3.50;;
61531;SDS011;47397;48.194;11.632;2022-07-30T05:58:07;4.78;;;3.72;;
61531;SDS011;47397;48.194;11.632;2022-07-30T05:59:07;4.25;;;3.30;;
61531;SDS011;47397;48.194;11.632;2022-07-30T06:00:08;4.53;;;3.58;;
61531;SDS011;47397;48.194;11.632;2022-07-30T06:01:10;4.20;;;3.70;;
61531;SDS011;47397;48.194;11.632;2022-07-30T06:02:10;4.57;;;4.00;;
61531;SDS011;47397;48.194;11.632;2022-07-30T06:03:12;4.28;;;3.88;;
61531;SDS011;47397;48.194;11.632;2022-07-30T06:04:13;4.07;;;3.67;;
61531;SDS011;47397;48.194;11.632;2022-07-30T06:05:13;4.10;;;3.13;;
61531;SDS011;47397;48.194;11.632;2022-07-30T06:06:13;4.05;;;3.65;;
61531;SDS011;47397;48.194;11.632;2022-07-30T06:07:14;5.57;;;3.80;;